sensor_id;sensor_type;location;lat;lon;timestamp;temperature;humidity
30186;DHT22;31152;49.190;8.122;2023-01-19T00:00:35;-0.40;99.90
30186;DHT22;31152;49.190;8.122;2023-01-19T00:03:03;-0.40;99.90
30186;DHT22;31152;49.190;8.122;2023-01-19T00:05:30;-0.50;99.90
30186;DHT22;31152;49.190;8.122;2023-01-19T00:07:59;-0.50;99.90
30186;DHT22;31152;49.190;8.122;2023-01-19T00:10:48;-0.50;99.90
30186;DHT22;31152;49.190;8.122;2023-01-19T00:13:20;-0.50;99.90
30186;DHT22;31152;49.190;8.122;2023-01-19T00:15:49;-0.50;99.90
30186;DHT22;31152;49.190;8.122;2023-01-19T00:18:16;-0.50;99.90
30186;DHT22;31152;49.190;8.122;2023-01-19T00:20:45;-0.50;99.90
30186;DHT22;31152;49.190;8.122;2023-01-19T00:23:14;-0.50;99.90
30186;DHT22;31152;49.190;8.122;2023-01-19T00:25:44;-0.60;99.90
30186;DHT22;31152;49.190;8.122;2023-01-19T00:28:14;-0.60;99.90
30186;DHT22;31152;49.190;8.122;2023-01-19T00:30:42;-0.50;99.90
30186;DHT22;31152;49.190;8.122;2023-01-19T00:33:12;-0.50;99.90
30186;DHT22;31152;49.190;8.122;2023-01-19T00:35:44;-0.50;99.90
30186;DHT22;31152;49.190;8.122;2023-01-19T00:38:11;-0.50;99.90
30186;DHT22;31152;49.190;8.122;2023-01-19T00:40:38;-0.40;99.90
30186;DHT22;31152;49.190;8.122;2023-01-19T00:43:04;-0.40;99.90
30186;DHT22;31152;49.190;8.122;2023-01-19T00:45:32;-0.40;99.90
30186;DHT22;31152;49.190;8.122;2023-01-19T00:47:58;-0.40;99.90
30186;DHT22;31152;49.190;8.122;2023-01-19T00:50:27;-0.40;99.90
30186;DHT22;31152;49.190;8.122;2023-01-19T00:52:57;-0.40;99.90
30186;DHT22;31152;49.190;8.122;2023-01-19T00:55:27;-0.30;99.90
30186;DHT22;31152;49.190;8.122;2023-01-19T00:57:54;-0.30;99.90
30186;DHT22;31152;49.190;8.122;2023-01-19T01:00:21;-0.30;99.90
30186;DHT22;31152;49.190;8.122;2023-01-19T01:02:50;-0.30;99.90
30186;DHT22;31152;49.190;8.122;2023-01-19T01:05:18;-0.20;99.90
30186;DHT22;31152;49.190;8.122;2023-01-19T01:07:48;-0.20;99.90
30186;DHT22;31152;49.190;8.122;2023-01-19T01:10:22;-0.20;99.90
30186;DHT22;31152;49.190;8.122;2023-01-19T01:12:49;-0.20;99.90
30186;DHT22;31152;49.190;8.122;2023-01-19T01:15:25;-0.10;99.90
30186;DHT22;31152;49.190;8.122;2023-01-19T01:17:52;-0.10;99.90
30186;DHT22;31152;49.190;8.122;2023-01-19T01:20:25;-0.10;99.90
30186;DHT22;31152;49.190;8.122;2023-01-19T01:22:56;-0.10;99.90
30186;DHT22;31152;49.190;8.122;2023-01-19T01:25:24;-0.20;99.90
30186;DHT22;31152;49.190;8.122;2023-01-19T01:27:52;-0.20;99.90
30186;DHT22;31152;49.190;8.122;2023-01-19T01:30:20;-0.10;99.90
30186;DHT22;31152;49.190;8.122;2023-01-19T01:32:47;-0.20;99.90
30186;DHT22;31152;49.190;8.122;2023-01-19T01:35:14;-0.20;99.90
30186;DHT22;31152;49.190;8.122;2023-01-19T01:37:44;-0.20;99.90
30186;DHT22;31152;49.190;8.122;2023-01-19T01:40:13;-0.30;99.90
30186;DHT22;31152;49.190;8.122;2023-01-19T01:42:42;-0.30;99.90
30186;DHT22;31152;49.190;8.122;2023-01-19T01:45:34;-0.30;99.90
30186;DHT22;31152;49.190;8.122;2023-01-19T01:56:44;-0.20;99.90
30186;DHT22;31152;49.190;8.122;2023-01-19T01:59:13;-0.20;99.90
30186;DHT22;31152;49.190;8.122;2023-01-19T02:01:56;-0.10;99.90
30186;DHT22;31152;49.190;8.122;2023-01-19T02:04:48;-0.10;99.90
30186;DHT22;31152;49.190;8.122;2023-01-19T02:07:21;-0.10;99.90
30186;DHT22;31152;49.190;8.122;2023-01-19T02:10:10;0.00;99.90
30186;DHT22;31152;49.190;8.122;2023-01-19T02:12:56;0.00;99.90
30186;DHT22;31152;49.190;8.122;2023-01-19T02:15:42;0.10;99.90
30186;DHT22;31152;49.190;8.122;2023-01-19T02:18:08;0.10;99.90
30186;DHT22;31152;49.190;8.122;2023-01-19T02:20:39;0.10;99.90
30186;DHT22;31152;49.190;8.122;2023-01-19T02:23:14;0.10;99.90
30186;DHT22;31152;49.190;8.122;2023-01-19T02:25:43;0.10;99.90
30186;DHT22;31152;49.190;8.122;2023-01-19T02:28:10;0.10;99.90
30186;DHT22;31152;49.190;8.122;2023-01-19T02:30:38;0.10;99.90
30186;DHT22;31152;49.190;8.122;2023-01-19T02:33:06;0.10;99.90
30186;DHT22;31152;49.190;8.122;2023-01-19T02:35:35;0.10;99.90
30186;DHT22;31152;49.190;8.122;2023-01-19T02:38:06;0.00;99.90
30186;DHT22;31152;49.190;8.122;2023-01-19T02:40:36;0.10;99.90
30186;DHT22;31152;49.190;8.122;2023-01-19T02:43:04;0.10;99.90
30186;DHT22;31152;49.190;8.122;2023-01-19T02:45:31;0.10;99.90
30186;DHT22;31152;49.190;8.122;2023-01-19T02:47:58;0.10;99.90
30186;DHT22;31152;49.190;8.122;2023-01-19T02:50:45;0.10;99.90
30186;DHT22;31152;49.190;8.122;2023-01-19T02:56:35;0.20;99.90
30186;DHT22;31152;49.190;8.122;2023-01-19T02:59:27;0.20;99.90
30186;DHT22;31152;49.190;8.122;2023-01-19T03:04:58;0.20;99.90
30186;DHT22;31152;49.190;8.122;2023-01-19T03:10:30;0.20;99.90
30186;DHT22;31152;49.190;8.122;2023-01-19T03:18:08;0.20;99.90
30186;DHT22;31152;49.190;8.122;2023-01-19T03:20:37;0.30;99.90
30186;DHT22;31152;49.190;8.122;2023-01-19T03:23:09;0.30;99.90
30186;DHT22;31152;49.190;8.122;2023-01-19T03:25:40;0.40;99.90
30186;DHT22;31152;49.190;8.122;2023-01-19T03:28:12;0.40;99.90
30186;DHT22;31152;49.190;8.122;2023-01-19T03:30:42;0.40;99.90
30186;DHT22;31152;49.190;8.122;2023-01-19T03:33:39;0.40;99.90
30186;DHT22;31152;49.190;8.122;2023-01-19T03:36:13;0.40;99.90
30186;DHT22;31152;49.190;8.122;2023-01-19T03:38:42;0.40;99.90
30186;DHT22;31152;49.190;8.122;2023-01-19T03:41:14;0.40;99.90
30186;DHT22;31152;49.190;8.122;2023-01-19T03:43:43;0.30;99.90
30186;DHT22;31152;49.190;8.122;2023-01-19T03:46:11;0.30;99.90
30186;DHT22;31152;49.190;8.122;2023-01-19T03:48:43;0.20;99.90
30186;DHT22;31152;49.190;8.122;2023-01-19T03:51:13;0.20;99.90
30186;DHT22;31152;49.190;8.122;2023-01-19T03:53:40;0.20;99.90
30186;DHT22;31152;49.190;8.122;2023-01-19T03:56:23;0.20;99.90
30186;DHT22;31152;49.190;8.122;2023-01-19T03:58:52;0.10;99.90
30186;DHT22;31152;49.190;8.122;2023-01-19T04:01:22;0.10;99.90
30186;DHT22;31152;49.190;8.122;2023-01-19T04:03:51;0.10;99.90
30186;DHT22;31152;49.190;8.122;2023-01-19T04:06:20;0.10;99.90
30186;DHT22;31152;49.190;8.122;2023-01-19T04:08:50;0.10;99.90
30186;DHT22;31152;49.190;8.122;2023-01-19T04:11:17;0.00;99.90
30186;DHT22;31152;49.190;8.122;2023-01-19T04:13:44;0.00;99.90
30186;DHT22;31152;49.190;8.122;2023-01-19T04:16:15;0.00;99.90
30186;DHT22;31152;49.190;8.122;2023-01-19T04:18:46;0.00;99.90
30186;DHT22;31152;49.190;8.122;2023-01-19T04:21:13;0.00;99.90
30186;DHT22;31152;49.190;8.122;2023-01-19T04:23:42;0.00;99.90
30186;DHT22;31152;49.190;8.122;2023-01-19T04:26:12;0.00;99.90
30186;DHT22;31152;49.190;8.122;2023-01-19T04:28:39;0.00;99.90
30186;DHT22;31152;49.190;8.122;2023-01-19T04:31:06;0.00;99.90
30186;DHT22;31152;49.190;8.122;2023-01-19T04:33:33;0.00;99.90
30186;DHT22;31152;49.190;8.122;2023-01-19T04:36:02;0.00;99.90
30186;DHT22;31152;49.190;8.122;2023-01-19T04:38:31;0.10;99.90
30186;DHT22;31152;49.190;8.122;2023-01-19T04:41:00;0.10;99.90
30186;DHT22;31152;49.190;8.122;2023-01-19T04:43:27;0.10;99.90
30186;DHT22;31152;49.190;8.122;2023-01-19T04:45:56;0.10;99.90
30186;DHT22;31152;49.190;8.122;2023-01-19T04:48:24;0.10;99.90
30186;DHT22;31152;49.190;8.122;2023-01-19T04:50:53;0.20;99.90
30186;DHT22;31152;49.190;8.122;2023-01-19T04:53:20;0.10;99.90
30186;DHT22;31152;49.190;8.122;2023-01-19T04:55:50;0.10;99.90
30186;DHT22;31152;49.190;8.122;2023-01-19T04:58:17;0.10;99.90
30186;DHT22;31152;49.190;8.122;2023-01-19T05:00:44;0.10;99.90
30186;DHT22;31152;49.190;8.122;2023-01-19T05:03:13;0.10;99.90
30186;DHT22;31152;49.190;8.122;2023-01-19T05:05:40;0.20;99.90
30186;DHT22;31152;49.190;8.122;2023-01-19T05:08:07;0.20;99.90
30186;DHT22;31152;49.190;8.122;2023-01-19T05:10:34;0.20;99.90
30186;DHT22;31152;49.190;8.122;2023-01-19T05:13:04;0.10;99.90
30186;DHT22;31152;49.190;8.122;2023-01-19T05:15:31;0.20;99.90
30186;DHT22;31152;49.190;8.122;2023-01-19T05:18:02;0.10;99.90
30186;DHT22;31152;49.190;8.122;2023-01-19T05:20:28;0.20;99.90
30186;DHT22;31152;49.190;8.122;2023-01-19T05:22:55;0.10;99.90
30186;DHT22;31152;49.190;8.122;2023-01-19T05:25:25;0.20;99.90
30186;DHT22;31152;49.190;8.122;2023-01-19T05:27:51;0.10;99.90
30186;DHT22;31152;49.190;8.122;2023-01-19T05:30:18;0.10;99.90
30186;DHT22;31152;49.190;8.122;2023-01-19T05:32:45;0.20;99.90
30186;DHT22;31152;49.190;8.122;2023-01-19T05:35:12;0.20;99.90
30186;DHT22;31152;49.190;8.122;2023-01-19T05:37:46;0.10;99.90
30186;DHT22;31152;49.190;8.122;2023-01-19T05:40:14;0.10;99.90
30186;DHT22;31152;49.190;8.122;2023-01-19T05:42:41;0.10;99.90
30186;DHT22;31152;49.190;8.122;2023-01-19T05:45:10;0.10;99.90
30186;DHT22;31152;49.190;8.122;2023-01-19T05:47:37;0.10;99.90
30186;DHT22;31152;49.190;8.122;2023-01-19T05:50:05;0.10;99.90
30186;DHT22;31152;49.190;8.122;2023-01-19T05:52:32;0.20;99.90
30186;DHT22;31152;49.190;8.122;2023-01-19T05:54:59;0.20;99.90
30186;DHT22;31152;49.190;8.122;2023-01-19T05:57:26;0.20;99.90
30186;DHT22;31152;49.190;8.122;2023-01-19T05:59:52;0.20;99.90
30186;DHT22;31152;49.190;8.122;2023-01-19T06:02:21;0.20;99.90
30186;DHT22;31152;49.190;8.122;2023-01-19T06:04:54;0.30;99.90
30186;DHT22;31152;49.190;8.122;2023-01-19T06:07:22;0.30;99.90
30186;DHT22;31152;49.190;8.122;2023-01-19T06:09:50;0.30;99.90
30186;DHT22;31152;49.190;8.122;2023-01-19T06:12:19;0.30;99.90
30186;DHT22;31152;49.190;8.122;2023-01-19T06:14:46;0.30;99.90
30186;DHT22;31152;49.190;8.122;2023-01-19T06:17:12;0.30;99.90
30186;DHT22;31152;49.190;8.122;2023-01-19T06:19:39;0.40;99.90
30186;DHT22;31152;49.190;8.122;2023-01-19T06:22:06;0.30;99.90
30186;DHT22;31152;49.190;8.122;2023-01-19T06:24:33;0.30;99.90
30186;DHT22;31152;49.190;8.122;2023-01-19T06:27:00;0.30;99.90
30186;DHT22;31152;49.190;8.122;2023-01-19T06:29:26;0.20;99.90
30186;DHT22;31152;49.190;8.122;2023-01-19T06:31:55;0.20;99.90
30186;DHT22;31152;49.190;8.122;2023-01-19T06:34:22;0.30;99.90
30186;DHT22;31152;49.190;8.122;2023-01-19T06:36:52;0.20;99.90
30186;DHT22;31152;49.190;8.122;2023-01-19T06:39:19;0.20;99.90
30186;DHT22;31152;49.190;8.122;2023-01-19T06:41:46;0.20;99.90
30186;DHT22;31152;49.190;8.122;2023-01-19T06:44:13;0.20;99.90
30186;DHT22;31152;49.190;8.122;2023-01-19T06:46:42;0.20;99.90
30186;DHT22;31152;49.190;8.122;2023-01-19T06:49:08;0.20;99.90
30186;DHT22;31152;49.190;8.122;2023-01-19T06:51:35;0.20;99.90
30186;DHT22;31152;49.190;8.122;2023-01-19T06:54:02;0.20;99.90
30186;DHT22;31152;49.190;8.122;2023-01-19T06:56:31;0.20;99.90
30186;DHT22;31152;49.190;8.122;2023-01-19T06:59:00;0.20;99.90
30186;DHT22;31152;49.190;8.122;2023-01-19T07:01:27;0.20;99.90
30186;DHT22;31152;49.190;8.122;2023-01-19T07:03:54;0.20;99.90
30186;DHT22;31152;49.190;8.122;2023-01-19T07:06:20;0.20;99.90
30186;DHT22;31152;49.190;8.122;2023-01-19T07:08:47;0.20;99.90
30186;DHT22;31152;49.190;8.122;2023-01-19T07:11:14;0.10;99.90
30186;DHT22;31152;49.190;8.122;2023-01-19T07:13:56;0.10;99.90
30186;DHT22;31152;49.190;8.122;2023-01-19T07:16:23;0.10;99.90
30186;DHT22;31152;49.190;8.122;2023-01-19T07:18:50;0.10;99.90
30186;DHT22;31152;49.190;8.122;2023-01-19T07:21:20;0.20;99.90
30186;DHT22;31152;49.190;8.122;2023-01-19T07:23:48;0.20;99.90
30186;DHT22;31152;49.190;8.122;2023-01-19T07:26:15;0.20;99.90
30186;DHT22;31152;49.190;8.122;2023-01-19T07:28:47;0.20;99.90
30186;DHT22;31152;49.190;8.122;2023-01-19T07:31:14;0.20;99.90
30186;DHT22;31152;49.190;8.122;2023-01-19T07:33:41;0.20;99.90
30186;DHT22;31152;49.190;8.122;2023-01-19T07:36:08;0.30;99.90
30186;DHT22;31152;49.190;8.122;2023-01-19T07:38:35;0.30;99.90
30186;DHT22;31152;49.190;8.122;2023-01-19T07:41:07;0.30;99.90
30186;DHT22;31152;49.190;8.122;2023-01-19T07:43:34;0.30;99.90
30186;DHT22;31152;49.190;8.122;2023-01-19T07:46:06;0.30;99.90
30186;DHT22;31152;49.190;8.122;2023-01-19T07:48:34;0.30;99.90
30186;DHT22;31152;49.190;8.122;2023-01-19T07:51:04;0.30;99.90
30186;DHT22;31152;49.190;8.122;2023-01-19T07:53:37;0.30;99.90
30186;DHT22;31152;49.190;8.122;2023-01-19T07:56:05;0.30;99.90
30186;DHT22;31152;49.190;8.122;2023-01-19T07:58:34;0.30;99.90
30186;DHT22;31152;49.190;8.122;2023-01-19T08:01:06;0.30;99.90
30186;DHT22;31152;49.190;8.122;2023-01-19T08:03:35;0.30;99.90
30186;DHT22;31152;49.190;8.122;2023-01-19T08:06:05;0.30;99.90
30186;DHT22;31152;49.190;8.122;2023-01-19T08:08:33;0.40;99.90
30186;DHT22;31152;49.190;8.122;2023-01-19T08:10:59;0.40;99.90
30186;DHT22;31152;49.190;8.122;2023-01-19T08:13:29;0.50;99.90
30186;DHT22;31152;49.190;8.122;2023-01-19T08:15:56;0.50;99.90
30186;DHT22;31152;49.190;8.122;2023-01-19T08:18:23;0.50;99.90
30186;DHT22;31152;49.190;8.122;2023-01-19T08:20:52;0.50;99.90
30186;DHT22;31152;49.190;8.122;2023-01-19T08:23:21;0.50;99.90
30186;DHT22;31152;49.190;8.122;2023-01-19T08:25:48;0.50;99.90
30186;DHT22;31152;49.190;8.122;2023-01-19T08:28:15;0.60;99.90
30186;DHT22;31152;49.190;8.122;2023-01-19T08:30:45;0.60;99.90
30186;DHT22;31152;49.190;8.122;2023-01-19T08:33:20;0.50;99.90
30186;DHT22;31152;49.190;8.122;2023-01-19T08:35:51;0.50;99.90
30186;DHT22;31152;49.190;8.122;2023-01-19T08:38:18;0.50;99.90
30186;DHT22;31152;49.190;8.122;2023-01-19T08:40:45;0.50;99.90
30186;DHT22;31152;49.190;8.122;2023-01-19T08:43:14;0.50;99.90
30186;DHT22;31152;49.190;8.122;2023-01-19T08:45:44;0.50;99.90
30186;DHT22;31152;49.190;8.122;2023-01-19T08:48:16;0.50;99.90
30186;DHT22;31152;49.190;8.122;2023-01-19T08:50:45;0.60;99.90
30186;DHT22;31152;49.190;8.122;2023-01-19T08:53:13;0.60;99.90
30186;DHT22;31152;49.190;8.122;2023-01-19T08:55:40;0.50;99.90
30186;DHT22;31152;49.190;8.122;2023-01-19T08:58:09;0.50;99.90
30186;DHT22;31152;49.190;8.122;2023-01-19T09:00:37;0.50;99.90
30186;DHT22;31152;49.190;8.122;2023-01-19T09:03:06;0.50;99.90
30186;DHT22;31152;49.190;8.122;2023-01-19T09:05:34;0.60;99.90
30186;DHT22;31152;49.190;8.122;2023-01-19T09:08:05;0.60;99.90
30186;DHT22;31152;49.190;8.122;2023-01-19T09:10:33;0.60;99.90
30186;DHT22;31152;49.190;8.122;2023-01-19T09:13:07;0.60;99.90
30186;DHT22;31152;49.190;8.122;2023-01-19T09:15:38;0.60;99.90
30186;DHT22;31152;49.190;8.122;2023-01-19T09:18:07;0.60;99.90
30186;DHT22;31152;49.190;8.122;2023-01-19T09:20:35;0.70;99.90
30186;DHT22;31152;49.190;8.122;2023-01-19T09:23:04;0.70;99.90
30186;DHT22;31152;49.190;8.122;2023-01-19T09:25:31;0.70;99.90
30186;DHT22;31152;49.190;8.122;2023-01-19T09:27:58;0.80;99.90
30186;DHT22;31152;49.190;8.122;2023-01-19T09:30:26;0.80;99.90
30186;DHT22;31152;49.190;8.122;2023-01-19T09:32:53;0.80;99.90
30186;DHT22;31152;49.190;8.122;2023-01-19T09:35:20;0.80;99.90
30186;DHT22;31152;49.190;8.122;2023-01-19T09:37:47;0.80;99.90
30186;DHT22;31152;49.190;8.122;2023-01-19T09:40:15;0.80;99.90
30186;DHT22;31152;49.190;8.122;2023-01-19T09:42:55;0.90;99.90
30186;DHT22;31152;49.190;8.122;2023-01-19T09:45:53;0.90;99.90
30186;DHT22;31152;49.190;8.122;2023-01-19T09:50:57;1.00;99.90
30186;DHT22;31152;49.190;8.122;2023-01-19T09:56:14;1.10;99.90
30186;DHT22;31152;49.190;8.122;2023-01-19T09:58:45;1.20;99.90
30186;DHT22;31152;49.190;8.122;2023-01-19T10:01:31;1.40;99.90
30186;DHT22;31152;49.190;8.122;2023-01-19T10:04:24;1.50;99.90
30186;DHT22;31152;49.190;8.122;2023-01-19T10:06:56;1.60;99.90
30186;DHT22;31152;49.190;8.122;2023-01-19T10:12:37;2.00;99.90
30186;DHT22;31152;49.190;8.122;2023-01-19T10:15:20;2.10;99.90
30186;DHT22;31152;49.190;8.122;2023-01-19T10:18:15;2.00;99.90
30186;DHT22;31152;49.190;8.122;2023-01-19T10:20:52;1.80;99.90
30186;DHT22;31152;49.190;8.122;2023-01-19T10:26:28;1.50;99.90
30186;DHT22;31152;49.190;8.122;2023-01-19T10:29:23;1.40;99.90
30186;DHT22;31152;49.190;8.122;2023-01-19T10:31:59;1.40;99.90
30186;DHT22;31152;49.190;8.122;2023-01-19T10:34:29;1.40;99.90
30186;DHT22;31152;49.190;8.122;2023-01-19T10:37:03;1.40;99.90
30186;DHT22;31152;49.190;8.122;2023-01-19T10:39:30;1.60;99.90
30186;DHT22;31152;49.190;8.122;2023-01-19T10:41:59;1.70;99.90
30186;DHT22;31152;49.190;8.122;2023-01-19T10:44:29;1.80;99.90
30186;DHT22;31152;49.190;8.122;2023-01-19T10:47:00;1.80;99.90
30186;DHT22;31152;49.190;8.122;2023-01-19T10:52:04;2.80;99.90
30186;DHT22;31152;49.190;8.122;2023-01-19T10:54:33;2.70;99.90
30186;DHT22;31152;49.190;8.122;2023-01-19T10:57:07;2.50;99.90
30186;DHT22;31152;49.190;8.122;2023-01-19T10:59:37;2.40;99.90
30186;DHT22;31152;49.190;8.122;2023-01-19T11:02:20;2.30;99.90
30186;DHT22;31152;49.190;8.122;2023-01-19T11:04:52;2.20;99.90
30186;DHT22;31152;49.190;8.122;2023-01-19T11:18:04;2.00;99.90
30186;DHT22;31152;49.190;8.122;2023-01-19T11:20:48;2.00;99.90
30186;DHT22;31152;49.190;8.122;2023-01-19T11:23:34;1.90;99.90
30186;DHT22;31152;49.190;8.122;2023-01-19T11:26:15;1.90;99.90
30186;DHT22;31152;49.190;8.122;2023-01-19T11:28:51;1.90;99.90
30186;DHT22;31152;49.190;8.122;2023-01-19T11:34:02;1.80;99.90
30186;DHT22;31152;49.190;8.122;2023-01-19T11:36:35;1.90;99.90
30186;DHT22;31152;49.190;8.122;2023-01-19T11:39:19;1.90;99.90
30186;DHT22;31152;49.190;8.122;2023-01-19T11:41:53;1.80;99.90
30186;DHT22;31152;49.190;8.122;2023-01-19T11:47:05;1.80;99.90
30186;DHT22;31152;49.190;8.122;2023-01-19T11:55:17;1.90;99.90
30186;DHT22;31152;49.190;8.122;2023-01-19T11:57:47;2.00;99.90
30186;DHT22;31152;49.190;8.122;2023-01-19T12:00:35;2.10;99.90
30186;DHT22;31152;49.190;8.122;2023-01-19T12:03:32;2.20;99.90
30186;DHT22;31152;49.190;8.122;2023-01-19T12:06:02;2.30;99.90
30186;DHT22;31152;49.190;8.122;2023-01-19T12:08:36;2.30;99.90
30186;DHT22;31152;49.190;8.122;2023-01-19T12:11:05;2.20;99.90
30186;DHT22;31152;49.190;8.122;2023-01-19T12:13:34;2.20;99.90
30186;DHT22;31152;49.190;8.122;2023-01-19T12:18:43;2.10;99.90
30186;DHT22;31152;49.190;8.122;2023-01-19T12:21:12;2.10;99.90
30186;DHT22;31152;49.190;8.122;2023-01-19T12:23:52;2.10;99.90
30186;DHT22;31152;49.190;8.122;2023-01-19T12:26:29;2.00;99.90
30186;DHT22;31152;49.190;8.122;2023-01-19T12:34:42;2.10;99.90
30186;DHT22;31152;49.190;8.122;2023-01-19T12:37:32;2.00;99.90
30186;DHT22;31152;49.190;8.122;2023-01-19T12:40:27;2.10;99.90
30186;DHT22;31152;49.190;8.122;2023-01-19T12:43:02;2.00;99.90
30186;DHT22;31152;49.190;8.122;2023-01-19T12:45:34;2.00;99.90
30186;DHT22;31152;49.190;8.122;2023-01-19T12:48:03;2.00;99.90
30186;DHT22;31152;49.190;8.122;2023-01-19T12:50:34;2.10;99.90
30186;DHT22;31152;49.190;8.122;2023-01-19T12:53:14;2.40;99.90
30186;DHT22;31152;49.190;8.122;2023-01-19T12:55:41;3.40;99.90
30186;DHT22;31152;49.190;8.122;2023-01-19T12:58:16;4.60;99.90
30186;DHT22;31152;49.190;8.122;2023-01-19T13:00:48;5.60;99.90
30186;DHT22;31152;49.190;8.122;2023-01-19T13:08:12;7.30;99.90
30186;DHT22;31152;49.190;8.122;2023-01-19T13:14:32;8.00;99.90
30186;DHT22;31152;49.190;8.122;2023-01-19T13:16:46;8.20;99.90
30186;DHT22;31152;49.190;8.122;2023-01-19T13:19:17;8.50;99.90
30186;DHT22;31152;49.190;8.122;2023-01-19T13:21:47;7.80;99.90
30186;DHT22;31152;49.190;8.122;2023-01-19T13:24:20;7.70;99.90
30186;DHT22;31152;49.190;8.122;2023-01-19T13:29:30;6.80;99.90
30186;DHT22;31152;49.190;8.122;2023-01-19T13:32:01;7.10;99.90
30186;DHT22;31152;49.190;8.122;2023-01-19T13:34:41;7.70;99.90
30186;DHT22;31152;49.190;8.122;2023-01-19T13:37:21;8.30;99.90
30186;DHT22;31152;49.190;8.122;2023-01-19T13:39:51;8.40;99.90
30186;DHT22;31152;49.190;8.122;2023-01-19T13:42:37;7.90;99.90
30186;DHT22;31152;49.190;8.122;2023-01-19T13:45:35;7.80;99.90
30186;DHT22;31152;49.190;8.122;2023-01-19T13:48:11;8.20;99.90
30186;DHT22;31152;49.190;8.122;2023-01-19T13:50:41;8.00;99.90
30186;DHT22;31152;49.190;8.122;2023-01-19T13:53:20;7.50;99.90
30186;DHT22;31152;49.190;8.122;2023-01-19T13:56:15;6.70;99.90
30186;DHT22;31152;49.190;8.122;2023-01-19T13:58:43;6.00;99.90
30186;DHT22;31152;49.190;8.122;2023-01-19T14:01:25;5.40;99.90
30186;DHT22;31152;49.190;8.122;2023-01-19T14:03:56;5.00;99.90
30186;DHT22;31152;49.190;8.122;2023-01-19T14:06:32;4.70;99.90
30186;DHT22;31152;49.190;8.122;2023-01-19T14:09:13;4.30;99.90
30186;DHT22;31152;49.190;8.122;2023-01-19T14:14:29;3.80;99.90
30186;DHT22;31152;49.190;8.122;2023-01-19T14:16:56;3.70;99.90
30186;DHT22;31152;49.190;8.122;2023-01-19T14:19:22;3.80;99.90
30186;DHT22;31152;49.190;8.122;2023-01-19T14:22:02;4.80;99.90
30186;DHT22;31152;49.190;8.122;2023-01-19T14:24:30;5.80;99.90
30186;DHT22;31152;49.190;8.122;2023-01-19T14:27:16;5.70;99.90
30186;DHT22;31152;49.190;8.122;2023-01-19T14:29:45;5.80;99.90
30186;DHT22;31152;49.190;8.122;2023-01-19T14:32:15;6.50;99.90
30186;DHT22;31152;49.190;8.122;2023-01-19T14:37:35;7.20;99.90
30186;DHT22;31152;49.190;8.122;2023-01-19T14:40:16;7.40;99.90
30186;DHT22;31152;49.190;8.122;2023-01-19T14:42:55;7.30;99.90
30186;DHT22;31152;49.190;8.122;2023-01-19T14:45:33;6.90;99.90
30186;DHT22;31152;49.190;8.122;2023-01-19T14:48:05;6.60;99.90
30186;DHT22;31152;49.190;8.122;2023-01-19T14:50:40;6.50;99.90
30186;DHT22;31152;49.190;8.122;2023-01-19T14:53:27;6.70;99.90
30186;DHT22;31152;49.190;8.122;2023-01-19T14:56:03;6.70;99.90
30186;DHT22;31152;49.190;8.122;2023-01-19T14:58:32;7.00;99.90
30186;DHT22;31152;49.190;8.122;2023-01-19T15:00:59;7.40;99.90
30186;DHT22;31152;49.190;8.122;2023-01-19T15:03:27;7.50;99.90
30186;DHT22;31152;49.190;8.122;2023-01-19T15:06:18;7.30;99.90
30186;DHT22;31152;49.190;8.122;2023-01-19T15:08:46;6.80;99.90
30186;DHT22;31152;49.190;8.122;2023-01-19T15:11:30;6.30;99.90
30186;DHT22;31152;49.190;8.122;2023-01-19T15:14:00;6.40;99.90
30186;DHT22;31152;49.190;8.122;2023-01-19T15:16:49;6.40;99.90
30186;DHT22;31152;49.190;8.122;2023-01-19T15:19:16;6.60;99.90
30186;DHT22;31152;49.190;8.122;2023-01-19T15:21:43;6.50;99.90
30186;DHT22;31152;49.190;8.122;2023-01-19T15:24:12;6.30;99.90
30186;DHT22;31152;49.190;8.122;2023-01-19T15:26:43;6.40;99.90
30186;DHT22;31152;49.190;8.122;2023-01-19T15:29:23;6.40;99.90
30186;DHT22;31152;49.190;8.122;2023-01-19T15:31:51;6.20;99.90
30186;DHT22;31152;49.190;8.122;2023-01-19T15:34:20;6.10;99.90
30186;DHT22;31152;49.190;8.122;2023-01-19T15:36:49;5.90;99.90
30186;DHT22;31152;49.190;8.122;2023-01-19T15:39:16;5.40;99.90
30186;DHT22;31152;49.190;8.122;2023-01-19T15:41:42;5.00;99.90
30186;DHT22;31152;49.190;8.122;2023-01-19T15:44:09;4.70;99.90
30186;DHT22;31152;49.190;8.122;2023-01-19T15:46:36;4.30;99.90
30186;DHT22;31152;49.190;8.122;2023-01-19T15:49:03;4.10;99.90
30186;DHT22;31152;49.190;8.122;2023-01-19T15:51:33;3.90;99.90
30186;DHT22;31152;49.190;8.122;2023-01-19T15:54:00;3.70;99.90
30186;DHT22;31152;49.190;8.122;2023-01-19T15:56:30;3.60;99.90
30186;DHT22;31152;49.190;8.122;2023-01-19T15:58:58;3.50;99.90
30186;DHT22;31152;49.190;8.122;2023-01-19T16:01:26;3.30;99.90
30186;DHT22;31152;49.190;8.122;2023-01-19T16:04:03;3.20;99.90
30186;DHT22;31152;49.190;8.122;2023-01-19T16:06:30;3.10;99.90
30186;DHT22;31152;49.190;8.122;2023-01-19T16:08:58;2.90;99.90
30186;DHT22;31152;49.190;8.122;2023-01-19T16:11:30;2.90;99.90
30186;DHT22;31152;49.190;8.122;2023-01-19T16:13:57;2.80;99.90
30186;DHT22;31152;49.190;8.122;2023-01-19T16:16:27;2.70;99.90
30186;DHT22;31152;49.190;8.122;2023-01-19T16:18:59;2.60;99.90
30186;DHT22;31152;49.190;8.122;2023-01-19T16:21:28;2.40;99.90
30186;DHT22;31152;49.190;8.122;2023-01-19T16:23:55;2.30;99.90
30186;DHT22;31152;49.190;8.122;2023-01-19T16:26:25;2.20;99.90
30186;DHT22;31152;49.190;8.122;2023-01-19T16:28:55;2.20;99.90
30186;DHT22;31152;49.190;8.122;2023-01-19T16:31:25;2.10;99.90
30186;DHT22;31152;49.190;8.122;2023-01-19T16:33:52;2.00;99.90
30186;DHT22;31152;49.190;8.122;2023-01-19T16:36:27;2.00;99.90
30186;DHT22;31152;49.190;8.122;2023-01-19T16:38:58;1.90;99.90
30186;DHT22;31152;49.190;8.122;2023-01-19T16:41:25;1.90;99.90
30186;DHT22;31152;49.190;8.122;2023-01-19T16:43:53;1.80;99.90
30186;DHT22;31152;49.190;8.122;2023-01-19T16:46:24;1.80;99.90
30186;DHT22;31152;49.190;8.122;2023-01-19T16:48:51;1.70;99.90
30186;DHT22;31152;49.190;8.122;2023-01-19T16:51:21;1.80;99.90
30186;DHT22;31152;49.190;8.122;2023-01-19T16:53:51;1.70;99.90
30186;DHT22;31152;49.190;8.122;2023-01-19T16:56:18;1.70;99.90
30186;DHT22;31152;49.190;8.122;2023-01-19T16:58:45;1.70;99.90
30186;DHT22;31152;49.190;8.122;2023-01-19T17:01:14;1.70;99.90
30186;DHT22;31152;49.190;8.122;2023-01-19T17:03:44;1.70;99.90
30186;DHT22;31152;49.190;8.122;2023-01-19T17:06:13;1.70;99.90
30186;DHT22;31152;49.190;8.122;2023-01-19T17:08:40;1.70;99.90
30186;DHT22;31152;49.190;8.122;2023-01-19T17:11:11;1.70;99.90
30186;DHT22;31152;49.190;8.122;2023-01-19T17:13:38;1.70;99.90
30186;DHT22;31152;49.190;8.122;2023-01-19T17:16:08;1.70;99.90
30186;DHT22;31152;49.190;8.122;2023-01-19T17:18:36;1.60;99.90
30186;DHT22;31152;49.190;8.122;2023-01-19T17:21:06;1.50;99.90
30186;DHT22;31152;49.190;8.122;2023-01-19T17:23:34;1.50;99.90
30186;DHT22;31152;49.190;8.122;2023-01-19T17:26:02;1.40;99.90
30186;DHT22;31152;49.190;8.122;2023-01-19T17:28:30;1.40;99.90
30186;DHT22;31152;49.190;8.122;2023-01-19T17:31:12;1.40;99.90
30186;DHT22;31152;49.190;8.122;2023-01-19T17:33:44;1.40;99.90